Time;durP1;ratioP1;P1;durP2;ratioP2;P2;SDS_P1;SDS_P2;PMS_P1;PMS_P2;Temp;Humidity;BMP_temperature;BMP_pressure;BME280_temperature;BME280_humidity;BME280_pressure;Samples;Min_cycle;Max_cycle;Signal;HPM_P1;HPM_P2
2022/09/18 00:00:49;;;;;;;;;2.00;2.00;;;;;;;;5035433;28;10504;-87
2022/09/18 00:03:17;;;;;;;;;2.00;2.00;;;;;;;;5042097;28;10668;-86
2022/09/18 00:05:45;;;;;;;;;2.75;2.75;;;;;;;;5031016;28;10638;-81
2022/09/18 00:08:12;;;;;;;;;3.00;3.00;;;;;;;;5037997;28;10706;-82
2022/09/18 00:10:41;;;;;;;;;2.00;2.00;;;;;;;;5033977;28;10648;-81
2022/09/18 00:13:08;;;;;;;;;1.00;1.00;;;;;;;;5024714;28;10650;-82
2022/09/18 00:15:36;;;;;;;;;1.75;1.75;;;;;;;;5029101;28;10714;-82
2022/09/18 00:18:03;;;;;;;;;2.75;2.75;;;;;;;;5042671;28;10692;-83
2022/09/18 00:20:34;;;;;;;;;2.25;2.25;;;;;;;;5020251;28;10709;-86
2022/09/18 00:23:03;;;;;;;;;4.00;2.00;;;;;;;;5025681;28;10729;-85
2022/09/18 00:25:33;;;;;;;;;3.00;3.00;;;;;;;;5038393;28;10719;-86
2022/09/18 00:28:01;;;;;;;;;2.00;2.00;;;;;;;;5030077;28;10646;-87
2022/09/18 00:30:28;;;;;;;;;5.00;3.00;;;;;;;;5045696;28;10619;-86
2022/09/18 00:32:55;;;;;;;;;2.00;2.00;;;;;;;;5045043;28;10707;-85
2022/09/18 00:35:22;;;;;;;;;3.50;3.50;;;;;;;;5024550;28;10567;-85
2022/09/18 00:37:50;;;;;;;;;3.00;2.25;;;;;;;;5042958;28;11780;-86
2022/09/18 00:40:19;;;;;;;;;4.00;2.00;;;;;;;;5043563;28;10716;-86
2022/09/18 00:42:46;;;;;;;;;2.00;2.00;;;;;;;;5053191;28;10911;-86
2022/09/18 00:45:13;;;;;;;;;3.00;3.00;;;;;;;;5054020;28;10643;-87
2022/09/18 00:47:43;;;;;;;;;2.25;2.25;;;;;;;;5031837;28;11264;-87
2022/09/18 00:50:13;;;;;;;;;2.50;2.50;;;;;;;;5045558;28;10636;-87
2022/09/18 00:52:49;;;;;;;;;1.50;1.50;;;;;;;;5045027;28;10682;-87
2022/09/18 00:55:19;;;;;;;;;3.00;2.00;;;;;;;;5044738;28;10740;-88
2022/09/18 00:57:49;;;;;;;;;3.00;3.00;;;;;;;;5034009;28;10640;-87
2022/09/18 01:00:16;;;;;;;;;2.00;2.00;;;;;;;;5025442;28;10686;-87
2022/09/18 01:02:45;;;;;;;;;1.00;1.00;;;;;;;;5045753;28;10690;-86
2022/09/18 01:05:14;;;;;;;;;2.00;2.00;;;;;;;;5024635;28;10605;-86
2022/09/18 01:07:54;;;;;;;;;2.00;2.00;;;;;;;;5042996;28;10682;-84
2022/09/18 01:10:34;;;;;;;;;5.00;2.00;;;;;;;;5046491;28;10758;-86
2022/09/18 01:13:08;;;;;;;;;2.00;2.00;;;;;;;;5046551;28;10623;-88
2022/09/18 01:15:41;;;;;;;;;2.75;2.75;;;;;;;;5046977;28;10750;-85
2022/09/18 01:18:14;;;;;;;;;2.00;2.00;;;;;;;;5041841;28;10801;-85
2022/09/18 01:21:03;;;;;;;;;4.00;2.00;;;;;;;;5041367;28;10729;-86
2022/09/18 01:23:58;;;;;;;;;3.25;3.25;;;;;;;;5042097;28;10840;-84
2022/09/18 01:26:40;;;;;;;;;4.25;4.25;;;;;;;;5029644;28;10807;-84
2022/09/18 01:29:13;;;;;;;;;2.00;2.00;;;;;;;;5039983;28;10870;-86
2022/09/18 01:31:47;;;;;;;;;5.00;3.00;;;;;;;;5042137;28;10731;-87
2022/09/18 01:34:18;;;;;;;;;3.00;3.00;;;;;;;;5045027;28;10802;-85
2022/09/18 01:36:49;;;;;;;;;4.00;4.00;;;;;;;;5043341;28;10866;-85
2022/09/18 01:39:23;;;;;;;;;2.50;2.50;;;;;;;;5059709;28;10950;-84
2022/09/18 01:41:51;;;;;;;;;2.75;2.75;;;;;;;;5044990;28;11709;-84
2022/09/18 01:44:22;;;;;;;;;5.00;3.50;;;;;;;;5042353;28;10962;-84
2022/09/18 01:46:50;;;;;;;;;5.25;3.75;;;;;;;;5045751;28;10908;-84
2022/09/18 01:49:21;;;;;;;;;2.25;2.25;;;;;;;;5045719;28;11017;-84
2022/09/18 01:51:51;;;;;;;;;3.25;3.25;;;;;;;;5046546;28;10876;-83
2022/09/18 01:54:21;;;;;;;;;3.00;3.00;;;;;;;;5047461;28;10927;-84
2022/09/18 01:56:52;;;;;;;;;2.25;2.25;;;;;;;;5031943;28;10971;-83
2022/09/18 01:59:26;;;;;;;;;3.00;3.00;;;;;;;;5047640;28;10923;-84
2022/09/18 02:01:55;;;;;;;;;5.00;3.75;;;;;;;;5040737;28;10866;-83
2022/09/18 02:04:26;;;;;;;;;4.00;2.50;;;;;;;;5045581;28;10949;-84
2022/09/18 02:06:58;;;;;;;;;4.00;4.00;;;;;;;;5045623;28;10978;-87
2022/09/18 02:09:26;;;;;;;;;5.00;3.25;;;;;;;;5037171;28;10927;-85
2022/09/18 02:11:55;;;;;;;;;2.75;2.00;;;;;;;;5045664;28;11111;-86
2022/09/18 02:14:27;;;;;;;;;3.00;3.00;;;;;;;;5029710;28;10988;-85
2022/09/18 02:16:59;;;;;;;;;1.25;1.25;;;;;;;;5038140;28;11017;-85
2022/09/18 02:19:31;;;;;;;;;3.00;3.00;;;;;;;;5043141;28;11164;-86
2022/09/18 02:22:00;;;;;;;;;2.00;2.00;;;;;;;;5045101;28;11785;-86
2022/09/18 02:24:32;;;;;;;;;3.75;3.75;;;;;;;;5044908;28;10980;-87
2022/09/18 02:27:02;;;;;;;;;7.25;5.00;;;;;;;;5042309;28;10933;-86
2022/09/18 02:29:32;;;;;;;;;3.50;3.50;;;;;;;;5020018;28;11015;-86
2022/09/18 02:32:00;;;;;;;;;3.00;3.00;;;;;;;;5024830;28;11020;-85
2022/09/18 02:34:28;;;;;;;;;3.00;3.00;;;;;;;;5042223;28;11743;-85
2022/09/18 02:37:23;;;;;;;;;3.25;3.25;;;;;;;;5025191;28;11772;-86
2022/09/18 02:40:02;;;;;;;;;4.50;3.00;;;;;;;;5034227;28;11102;-86
2022/09/18 02:42:39;;;;;;;;;4.00;4.00;;;;;;;;5044843;28;10928;-87
2022/09/18 02:45:15;;;;;;;;;3.50;3.50;;;;;;;;5007281;28;10984;-86
2022/09/18 02:47:55;;;;;;;;;5.25;3.25;;;;;;;;5045419;28;11030;-87
2022/09/18 02:50:28;;;;;;;;;4.00;4.00;;;;;;;;5041008;28;10988;-87
2022/09/18 02:53:02;;;;;;;;;6.00;4.00;;;;;;;;5044103;28;11155;-85
2022/09/18 02:55:32;;;;;;;;;3.00;3.00;;;;;;;;5043441;28;10975;-87
2022/09/18 02:58:02;;;;;;;;;4.25;4.25;;;;;;;;5044107;28;11020;-87
2022/09/18 03:00:32;;;;;;;;;3.25;3.00;;;;;;;;5058924;28;11018;-87
2022/09/18 03:02:59;;;;;;;;;4.75;2.75;;;;;;;;5046868;28;11038;-86
2022/09/18 03:05:27;;;;;;;;;4.50;3.75;;;;;;;;5051985;28;11003;-86
2022/09/18 03:07:54;;;;;;;;;2.25;2.25;;;;;;;;5049176;28;10934;-88
2022/09/18 03:10:21;;;;;;;;;5.00;2.00;;;;;;;;5044062;28;10879;-86
2022/09/18 03:12:49;;;;;;;;;2.00;2.00;;;;;;;;5040072;28;10912;-87
2022/09/18 03:15:16;;;;;;;;;3.50;3.50;;;;;;;;5036710;28;10942;-87
2022/09/18 03:17:45;;;;;;;;;3.75;3.50;;;;;;;;5044799;28;10929;-88
2022/09/18 03:20:13;;;;;;;;;5.00;5.00;;;;;;;;5041353;28;11229;-89
2022/09/18 03:22:40;;;;;;;;;6.75;4.75;;;;;;;;5033944;28;11095;-82
2022/09/18 03:25:08;;;;;;;;;4.75;4.00;;;;;;;;5039361;28;11113;-84
2022/09/18 03:27:36;;;;;;;;;5.25;4.00;;;;;;;;5060051;28;11125;-86
2022/09/18 03:30:04;;;;;;;;;3.00;3.00;;;;;;;;5042128;28;11143;-85
2022/09/18 03:32:31;;;;;;;;;6.75;4.00;;;;;;;;5025328;28;11104;-89
2022/09/18 03:35:00;;;;;;;;;4.75;4.00;;;;;;;;5034496;28;11160;-84
2022/09/18 03:37:27;;;;;;;;;3.75;2.75;;;;;;;;5035758;28;11284;-88
2022/09/18 03:39:55;;;;;;;;;4.00;4.00;;;;;;;;5026274;28;11183;-85
2022/09/18 03:42:22;;;;;;;;;4.00;3.00;;;;;;;;5042682;28;11235;-87
2022/09/18 03:44:50;;;;;;;;;4.00;4.00;;;;;;;;5040695;28;11069;-86
2022/09/18 03:47:17;;;;;;;;;3.00;3.00;;;;;;;;5043357;28;11148;-87
2022/09/18 03:49:44;;;;;;;;;3.00;3.00;;;;;;;;5038501;28;10978;-86
2022/09/18 03:52:13;;;;;;;;;3.00;3.00;;;;;;;;5063823;28;11088;-88
2022/09/18 03:54:41;;;;;;;;;3.50;3.50;;;;;;;;5029842;28;10991;-86
2022/09/18 03:57:08;;;;;;;;;5.75;5.75;;;;;;;;5027956;28;11106;-87
2022/09/18 03:59:35;;;;;;;;;3.00;3.00;;;;;;;;5042705;28;11166;-86
2022/09/18 04:02:03;;;;;;;;;3.00;3.00;;;;;;;;5043651;28;10943;-87
2022/09/18 04:04:31;;;;;;;;;4.00;4.00;;;;;;;;5040324;28;11764;-87
2022/09/18 04:06:59;;;;;;;;;5.75;4.00;;;;;;;;5039905;28;11794;-86
2022/09/18 04:09:30;;;;;;;;;2.75;2.75;;;;;;;;5047912;28;10979;-87
2022/09/18 04:11:58;;;;;;;;;4.00;4.00;;;;;;;;5045082;28;11118;-88
2022/09/18 04:14:25;;;;;;;;;2.00;2.00;;;;;;;;5050749;28;11113;-87
2022/09/18 04:16:52;;;;;;;;;5.25;3.25;;;;;;;;5050667;28;11074;-86
2022/09/18 04:19:20;;;;;;;;;4.00;4.00;;;;;;;;5022715;28;11289;-86
2022/09/18 04:21:47;;;;;;;;;4.00;3.25;;;;;;;;5047011;28;11101;-87
2022/09/18 04:24:14;;;;;;;;;4.00;4.00;;;;;;;;5044276;28;11510;-87
2022/09/18 04:26:43;;;;;;;;;4.75;4.75;;;;;;;;5049677;28;11520;-85
2022/09/18 04:29:10;;;;;;;;;4.00;3.50;;;;;;;;5045515;28;11520;-89
2022/09/18 04:31:37;;;;;;;;;6.00;3.00;;;;;;;;5038988;28;12181;-90
2022/09/18 04:34:04;;;;;;;;;4.00;4.00;;;;;;;;5055895;28;11216;-87
2022/09/18 04:36:32;;;;;;;;;3.50;3.50;;;;;;;;5037706;28;11272;-87
2022/09/18 04:39:02;;;;;;;;;4.50;4.50;;;;;;;;5047011;28;11430;-87
2022/09/18 04:41:31;;;;;;;;;1.25;1.25;;;;;;;;5034673;28;11083;-86
2022/09/18 04:44:00;;;;;;;;;4.75;4.75;;;;;;;;5047950;28;11217;-86
2022/09/18 04:46:27;;;;;;;;;7.75;5.00;;;;;;;;5046881;28;11464;-87
2022/09/18 04:48:55;;;;;;;;;3.25;3.25;;;;;;;;5045934;28;11571;-86
2022/09/18 04:51:22;;;;;;;;;3.50;3.50;;;;;;;;5043637;28;11462;-85
2022/09/18 04:53:49;;;;;;;;;8.00;6.00;;;;;;;;5042236;28;11946;-86
2022/09/18 04:56:17;;;;;;;;;3.75;3.75;;;;;;;;5041093;28;11459;-86
2022/09/18 04:58:44;;;;;;;;;5.00;5.00;;;;;;;;5037856;28;11585;-86
2022/09/18 05:01:13;;;;;;;;;4.75;4.00;;;;;;;;5043622;28;11398;-87
2022/09/18 05:03:40;;;;;;;;;2.00;2.00;;;;;;;;5045735;28;11593;-86
2022/09/18 05:06:07;;;;;;;;;3.00;3.00;;;;;;;;5040899;28;11481;-88
2022/09/18 05:08:36;;;;;;;;;6.25;6.00;;;;;;;;5045985;28;11449;-85
2022/09/18 05:11:03;;;;;;;;;6.00;5.50;;;;;;;;5046781;28;11438;-87
2022/09/18 05:13:31;;;;;;;;;3.50;3.50;;;;;;;;5045707;28;11501;-87
2022/09/18 05:15:59;;;;;;;;;3.25;3.25;;;;;;;;5046127;28;11463;-88
2022/09/18 05:18:27;;;;;;;;;6.00;6.00;;;;;;;;5045167;28;11448;-86
2022/09/18 05:20:55;;;;;;;;;3.50;3.50;;;;;;;;5037418;28;11582;-85
2022/09/18 05:23:22;;;;;;;;;7.00;5.50;;;;;;;;5051353;28;11495;-85
2022/09/18 05:25:49;;;;;;;;;6.75;5.50;;;;;;;;5047356;28;11538;-88
2022/09/18 05:28:18;;;;;;;;;4.00;4.00;;;;;;;;5030165;28;11484;-87
2022/09/18 05:30:45;;;;;;;;;3.50;3.50;;;;;;;;5041138;28;11409;-84
2022/09/18 05:33:13;;;;;;;;;1.00;1.00;;;;;;;;5030692;28;11503;-88
2022/09/18 05:35:42;;;;;;;;;5.75;5.75;;;;;;;;5049444;28;11643;-88
2022/09/18 05:38:10;;;;;;;;;3.25;3.00;;;;;;;;5045864;28;11460;-88
2022/09/18 05:40:38;;;;;;;;;4.00;4.00;;;;;;;;5039009;28;11414;-87
2022/09/18 05:43:06;;;;;;;;;5.75;5.75;;;;;;;;5045469;28;11475;-87
2022/09/18 05:45:33;;;;;;;;;6.25;6.25;;;;;;;;5052197;28;11514;-85
2022/09/18 05:48:02;;;;;;;;;6.25;6.25;;;;;;;;5039417;28;11489;-84
2022/09/18 05:50:31;;;;;;;;;7.25;7.25;;;;;;;;5037953;28;11555;-82
2022/09/18 05:53:01;;;;;;;;;6.00;6.00;;;;;;;;5045253;28;11428;-82
2022/09/18 05:55:29;;;;;;;;;8.75;7.00;;;;;;;;5038199;28;11580;-77
2022/09/18 05:57:57;;;;;;;;;9.25;8.00;;;;;;;;5041694;28;11468;-79
2022/09/18 06:00:25;;;;;;;;;11.75;8.00;;;;;;;;5043310;28;11355;-79
2022/09/18 06:02:54;;;;;;;;;6.00;6.00;;;;;;;;5035449;28;11495;-77
2022/09/18 06:05:22;;;;;;;;;6.75;6.75;;;;;;;;5044818;28;11444;-78
2022/09/18 06:07:49;;;;;;;;;6.25;6.25;;;;;;;;5044783;28;11444;-77
2022/09/18 06:10:18;;;;;;;;;7.50;7.50;;;;;;;;5040069;28;11484;-77
2022/09/18 06:12:46;;;;;;;;;7.25;7.25;;;;;;;;5039906;28;12292;-77
2022/09/18 06:15:13;;;;;;;;;4.00;4.00;;;;;;;;5025439;28;11566;-78
2022/09/18 06:17:41;;;;;;;;;6.75;6.75;;;;;;;;5042709;28;11552;-76
2022/09/18 06:20:10;;;;;;;;;4.00;4.00;;;;;;;;5043218;28;12423;-77
2022/09/18 06:22:37;;;;;;;;;8.25;7.25;;;;;;;;5042403;28;11439;-78
2022/09/18 06:25:05;;;;;;;;;7.25;7.25;;;;;;;;5046086;28;11508;-79
2022/09/18 06:27:35;;;;;;;;;7.75;7.75;;;;;;;;5038937;28;11496;-79
2022/09/18 06:30:04;;;;;;;;;6.00;6.00;;;;;;;;5038744;28;11211;-78
2022/09/18 06:32:31;;;;;;;;;7.75;7.50;;;;;;;;5014604;28;11473;-77
2022/09/18 06:34:58;;;;;;;;;6.50;6.50;;;;;;;;5022694;28;11489;-78
2022/09/18 06:37:26;;;;;;;;;5.75;3.50;;;;;;;;5021038;28;11502;-82
2022/09/18 06:39:53;;;;;;;;;11.00;7.75;;;;;;;;5021425;28;11496;-78
2022/09/18 06:42:20;;;;;;;;;7.75;7.75;;;;;;;;5018786;28;11525;-79
2022/09/18 06:44:49;;;;;;;;;7.75;7.25;;;;;;;;5025037;28;11176;-76
2022/09/18 06:47:16;;;;;;;;;9.50;8.00;;;;;;;;5021170;28;11661;-78
2022/09/18 06:49:44;;;;;;;;;7.75;7.75;;;;;;;;5019819;28;11614;-77
2022/09/18 06:52:11;;;;;;;;;7.75;7.75;;;;;;;;5020106;28;11480;-76
2022/09/18 06:54:39;;;;;;;;;9.00;7.25;;;;;;;;5021995;28;11270;-79
2022/09/18 06:57:07;;;;;;;;;9.25;8.00;;;;;;;;5017364;28;12150;-77
2022/09/18 06:59:36;;;;;;;;;10.75;9.00;;;;;;;;5019034;28;11267;-80
2022/09/18 07:02:05;;;;;;;;;8.25;8.00;;;;;;;;5016693;28;11247;-82
2022/09/18 07:04:34;;;;;;;;;8.00;8.00;;;;;;;;5022627;28;11219;-81
2022/09/18 07:07:01;;;;;;;;;7.00;7.00;;;;;;;;5020167;28;11154;-81
2022/09/18 07:09:29;;;;;;;;;7.75;7.75;;;;;;;;5017569;28;11229;-79
2022/09/18 07:12:00;;;;;;;;;9.50;9.50;;;;;;;;5021327;28;11242;-80
2022/09/18 07:14:29;;;;;;;;;6.50;4.00;;;;;;;;5020463;28;11181;-80
2022/09/18 07:16:57;;;;;;;;;10.25;8.50;;;;;;;;5021153;28;11307;-80
2022/09/18 07:19:25;;;;;;;;;10.00;8.75;;;;;;;;5024480;28;11161;-80
2022/09/18 07:21:53;;;;;;;;;7.00;7.00;;;;;;;;5041585;28;10870;-79
2022/09/18 07:24:20;;;;;;;;;7.25;7.25;;;;;;;;5041396;28;10741;-81
2022/09/18 07:26:48;;;;;;;;;7.75;7.50;;;;;;;;5041355;28;10881;-81
2022/09/18 07:29:15;;;;;;;;;4.50;4.50;;;;;;;;5040346;28;10881;-73
2022/09/18 07:31:42;;;;;;;;;5.25;5.25;;;;;;;;5040232;28;10846;-75
2022/09/18 07:34:11;;;;;;;;;8.00;5.50;;;;;;;;5041169;28;10904;-76
2022/09/18 07:36:40;;;;;;;;;7.75;7.75;;;;;;;;5022286;28;10852;-75
2022/09/18 07:39:07;;;;;;;;;6.75;6.75;;;;;;;;5039866;28;10767;-75
2022/09/18 07:41:35;;;;;;;;;9.75;8.00;;;;;;;;5039762;28;10734;-75
2022/09/18 07:44:02;;;;;;;;;9.25;7.75;;;;;;;;5033495;28;10750;-74
2022/09/18 07:46:32;;;;;;;;;9.50;8.50;;;;;;;;5020200;28;10858;-76
2022/09/18 07:49:00;;;;;;;;;11.75;9.00;;;;;;;;5038470;28;10713;-73
2022/09/18 07:51:27;;;;;;;;;9.25;7.50;;;;;;;;5038289;28;10730;-74
2022/09/18 07:53:56;;;;;;;;;7.00;7.00;;;;;;;;5039741;28;10523;-74
2022/09/18 07:56:23;;;;;;;;;5.50;5.50;;;;;;;;5035850;28;11190;-74
2022/09/18 07:58:50;;;;;;;;;8.00;8.00;;;;;;;;5034757;28;11035;-74
2022/09/18 08:01:18;;;;;;;;;7.25;6.50;;;;;;;;5039660;28;10270;-74
2022/09/18 08:03:45;;;;;;;;;7.75;7.75;;;;;;;;5037026;28;10332;-74
2022/09/18 08:06:12;;;;;;;;;5.00;5.00;;;;;;;;5038577;28;10258;-74
2022/09/18 08:08:39;;;;;;;;;10.25;9.00;;;;;;;;5040812;28;10215;-74
2022/09/18 08:11:08;;;;;;;;;9.25;9.00;;;;;;;;5020555;28;10197;-74
2022/09/18 08:13:35;;;;;;;;;6.25;6.25;;;;;;;;5033411;28;10039;-74
2022/09/18 08:16:03;;;;;;;;;8.00;8.00;;;;;;;;5032669;28;10099;-74
2022/09/18 08:18:31;;;;;;;;;6.50;6.50;;;;;;;;5027162;28;9935;-75
2022/09/18 08:20:58;;;;;;;;;8.25;4.00;;;;;;;;5037838;28;9768;-74
2022/09/18 08:23:25;;;;;;;;;7.25;7.25;;;;;;;;5039810;28;9743;-74
2022/09/18 08:25:53;;;;;;;;;8.50;8.50;;;;;;;;5039429;28;9703;-74
2022/09/18 08:28:21;;;;;;;;;7.75;7.75;;;;;;;;5039964;28;11053;-74
2022/09/18 08:30:49;;;;;;;;;5.50;5.50;;;;;;;;5037516;28;9532;-75
2022/09/18 08:33:16;;;;;;;;;10.00;10.00;;;;;;;;5037641;28;9722;-74
2022/09/18 08:35:43;;;;;;;;;5.00;5.00;;;;;;;;5043016;28;9503;-75
2022/09/18 08:38:15;;;;;;;;;8.33;6.00;;;;;;;;5043245;28;10218;-74
2022/09/18 08:41:20;;;;;;;;;8.00;6.00;;;;;;;;5035010;28;10505;-75
2022/09/18 08:43:55;;;;;;;;;8.33;6.00;;;;;;;;5034094;28;9277;-74
2022/09/18 08:46:27;;;;;;;;;6.00;6.00;;;;;;;;5041485;28;9261;-78
2022/09/18 08:49:01;;;;;;;;;8.00;6.00;;;;;;;;5041128;28;9953;-78
2022/09/18 08:51:33;;;;;;;;;6.00;6.00;;;;;;;;5041887;28;9165;-76
2022/09/18 08:54:15;;;;;;;;;4.00;4.00;;;;;;;;5042760;28;9104;-78
2022/09/18 08:56:43;;;;;;;;;5.33;5.33;;;;;;;;5045201;28;8970;-76
2022/09/18 08:59:16;;;;;;;;;9.00;6.00;;;;;;;;5041564;28;8948;-76
2022/09/18 09:01:50;;;;;;;;;4.75;4.00;;;;;;;;5043785;28;8930;-77
2022/09/18 09:04:21;;;;;;;;;6.75;6.00;;;;;;;;5039331;28;9641;-75
2022/09/18 09:07:01;;;;;;;;;5.25;5.25;;;;;;;;5036624;28;8854;-75
2022/09/18 09:09:43;;;;;;;;;5.00;5.00;;;;;;;;5029753;28;8872;-76
2022/09/18 09:12:17;;;;;;;;;4.75;4.75;;;;;;;;5030166;28;8927;-76
2022/09/18 09:15:15;;;;;;;;;7.50;4.25;;;;;;;;5030113;28;8879;-74
2022/09/18 09:17:49;;;;;;;;;6.50;3.50;;;;;;;;5031589;28;8860;-76
2022/09/18 09:20:23;;;;;;;;;5.00;3.75;;;;;;;;5023556;28;8852;-76
2022/09/18 09:23:02;;;;;;;;;5.00;3.75;;;;;;;;5029028;28;8872;-78
2022/09/18 09:25:37;;;;;;;;;3.25;3.25;;;;;;;;5033793;28;8846;-78
2022/09/18 09:28:13;;;;;;;;;3.25;3.25;;;;;;;;5022167;28;8880;-77
2022/09/18 09:30:43;;;;;;;;;2.75;2.75;;;;;;;;5025044;28;8815;-79
2022/09/18 09:33:20;;;;;;;;;3.50;3.50;;;;;;;;5025343;28;8884;-77
2022/09/18 09:35:50;;;;;;;;;1.75;1.75;;;;;;;;5041481;28;8925;-78
2022/09/18 09:38:34;;;;;;;;;2.75;1.00;;;;;;;;5039789;28;8884;-79
2022/09/18 09:41:10;;;;;;;;;2.50;1.00;;;;;;;;5045899;28;9002;-78
2022/09/18 09:43:41;;;;;;;;;1.50;1.50;;;;;;;;5042227;28;8862;-75
2022/09/18 09:46:16;;;;;;;;;1.00;1.00;;;;;;;;5044577;28;8883;-78
2022/09/18 09:48:49;;;;;;;;;0.00;0.00;;;;;;;;5033408;28;8878;-75
2022/09/18 09:51:22;;;;;;;;;0.25;0.00;;;;;;;;5040161;28;8868;-79
2022/09/18 09:53:52;;;;;;;;;0.00;0.00;;;;;;;;5040894;28;9652;-77
2022/09/18 09:56:25;;;;;;;;;1.75;1.00;;;;;;;;5041938;28;8848;-76
2022/09/18 09:59:02;;;;;;;;;0.75;0.75;;;;;;;;5036045;28;8870;-73
2022/09/18 10:01:34;;;;;;;;;0.75;0.75;;;;;;;;5040888;28;8792;-75
2022/09/18 10:04:18;;;;;;;;;1.00;1.00;;;;;;;;5035432;28;8899;-73
2022/09/18 10:06:52;;;;;;;;;1.00;1.00;;;;;;;;5045537;28;8867;-74
2022/09/18 10:09:25;;;;;;;;;1.00;1.00;;;;;;;;5042012;28;8880;-74
2022/09/18 10:11:58;;;;;;;;;0.00;0.00;;;;;;;;5042444;28;8864;-73
2022/09/18 10:14:27;;;;;;;;;1.20;1.20;;;;;;;;5041906;28;8854;-76
2022/09/18 10:16:57;;;;;;;;;0.00;0.00;;;;;;;;5036872;28;8899;-76
2022/09/18 10:19:34;;;;;;;;;2.00;0.00;;;;;;;;5042189;28;8894;-76
2022/09/18 10:22:06;;;;;;;;;2.00;1.00;;;;;;;;5016021;28;8870;-74
2022/09/18 10:24:43;;;;;;;;;0.00;0.00;;;;;;;;5042146;28;8973;-76
2022/09/18 10:27:11;;;;;;;;;0.00;0.00;;;;;;;;5026077;28;8891;-75
2022/09/18 10:29:39;;;;;;;;;0.75;0.75;;;;;;;;5034902;28;8880;-72
2022/09/18 10:32:10;;;;;;;;;0.00;0.00;;;;;;;;5023131;28;8778;-73
2022/09/18 10:34:41;;;;;;;;;0.00;0.00;;;;;;;;5022751;28;8885;-74
2022/09/18 10:37:15;;;;;;;;;0.25;0.25;;;;;;;;5021233;28;8877;-73
2022/09/18 10:39:50;;;;;;;;;0.75;0.75;;;;;;;;5022971;28;8874;-74
2022/09/18 10:42:21;;;;;;;;;0.00;0.00;;;;;;;;5019982;28;9620;-72
2022/09/18 10:44:53;;;;;;;;;0.75;0.00;;;;;;;;5021795;28;8864;-76
2022/09/18 10:47:25;;;;;;;;;0.75;0.75;;;;;;;;5015066;28;9712;-74
2022/09/18 10:49:55;;;;;;;;;0.25;0.25;;;;;;;;5024065;28;8839;-75
2022/09/18 10:52:30;;;;;;;;;0.00;0.00;;;;;;;;5015646;28;8860;-76
2022/09/18 10:55:08;;;;;;;;;2.00;0.50;;;;;;;;5023943;28;8878;-75
2022/09/18 10:57:37;;;;;;;;;1.00;1.00;;;;;;;;5028280;28;8875;-75
2022/09/18 11:00:31;;;;;;;;;0.00;0.00;;;;;;;;5021952;28;8890;-76
2022/09/18 11:03:01;;;;;;;;;0.00;0.00;;;;;;;;5036704;28;8844;-76
2022/09/18 11:05:32;;;;;;;;;0.00;0.00;;;;;;;;5042233;28;9701;-76
2022/09/18 11:08:02;;;;;;;;;1.00;1.00;;;;;;;;5042563;28;8864;-75
2022/09/18 11:10:31;;;;;;;;;2.00;0.00;;;;;;;;5036512;28;8834;-76
2022/09/18 11:13:01;;;;;;;;;0.75;0.00;;;;;;;;5042096;28;8995;-77
2022/09/18 11:15:31;;;;;;;;;6.00;4.50;;;;;;;;5040566;28;9460;-80
2022/09/18 11:18:02;;;;;;;;;1.00;1.00;;;;;;;;5041162;28;8855;-74
2022/09/18 11:20:31;;;;;;;;;0.00;0.00;;;;;;;;5039412;28;8990;-75
2022/09/18 11:23:15;;;;;;;;;2.50;0.00;;;;;;;;5036709;28;8848;-78
2022/09/18 11:25:44;;;;;;;;;0.20;0.20;;;;;;;;5042619;28;8844;-75
2022/09/18 11:28:22;;;;;;;;;0.00;0.00;;;;;;;;5039627;28;9680;-76
2022/09/18 11:30:58;;;;;;;;;0.00;0.00;;;;;;;;5025538;28;8821;-75
2022/09/18 11:33:29;;;;;;;;;0.00;0.00;;;;;;;;5026796;28;8834;-76
2022/09/18 11:36:01;;;;;;;;;0.00;0.00;;;;;;;;5039250;28;8867;-76
2022/09/18 11:38:28;;;;;;;;;0.00;0.00;;;;;;;;5047329;28;8867;-76
2022/09/18 11:40:57;;;;;;;;;0.00;0.00;;;;;;;;5041601;28;8840;-76
2022/09/18 11:43:27;;;;;;;;;0.00;0.00;;;;;;;;5043308;28;8880;-74
2022/09/18 11:46:06;;;;;;;;;0.00;0.00;;;;;;;;5042303;28;8868;-75
2022/09/18 11:48:38;;;;;;;;;0.00;0.00;;;;;;;;5041805;28;8848;-76
2022/09/18 11:51:15;;;;;;;;;0.00;0.00;;;;;;;;5043135;28;8910;-75
2022/09/18 11:53:44;;;;;;;;;0.00;0.00;;;;;;;;5040449;28;9831;-76
2022/09/18 11:56:16;;;;;;;;;0.00;0.00;;;;;;;;5040958;28;9650;-76
2022/09/18 11:58:50;;;;;;;;;0.00;0.00;;;;;;;;5039299;28;8855;-76
2022/09/18 12:01:27;;;;;;;;;0.00;0.00;;;;;;;;5041065;28;8820;-78
2022/09/18 12:04:04;;;;;;;;;0.00;0.00;;;;;;;;5042126;28;8977;-76
2022/09/18 12:06:40;;;;;;;;;0.75;0.75;;;;;;;;5042387;28;8992;-74
2022/09/18 12:09:15;;;;;;;;;0.00;0.00;;;;;;;;5042984;28;8871;-75
2022/09/18 12:11:52;;;;;;;;;0.00;0.00;;;;;;;;5042311;28;8913;-76
2022/09/18 12:14:24;;;;;;;;;0.00;0.00;;;;;;;;5046530;28;9625;-76
2022/09/18 12:16:54;;;;;;;;;1.00;0.00;;;;;;;;5045724;28;8925;-76
2022/09/18 12:19:27;;;;;;;;;0.00;0.00;;;;;;;;5028935;28;9461;-75
2022/09/18 12:22:00;;;;;;;;;0.00;0.00;;;;;;;;5047813;28;8910;-76
2022/09/18 12:24:28;;;;;;;;;0.00;0.00;;;;;;;;5045434;28;8887;-76
2022/09/18 12:27:07;;;;;;;;;0.00;0.00;;;;;;;;5046401;28;8849;-74
2022/09/18 12:29:48;;;;;;;;;0.00;0.00;;;;;;;;5045833;28;8852;-79
2022/09/18 12:32:27;;;;;;;;;0.00;0.00;;;;;;;;5047159;28;8828;-73
2022/09/18 12:35:03;;;;;;;;;0.00;0.00;;;;;;;;5046019;28;8871;-75
2022/09/18 12:37:42;;;;;;;;;0.00;0.00;;;;;;;;5045696;28;8840;-76
2022/09/18 12:40:37;;;;;;;;;0.00;0.00;;;;;;;;5028400;28;9010;-73
2022/09/18 12:43:37;;;;;;;;;0.00;0.00;;;;;;;;5034503;28;9683;-75
2022/09/18 12:46:19;;;;;;;;;0.00;0.00;;;;;;;;5004316;28;8868;-76
2022/09/18 12:49:02;;;;;;;;;0.00;0.00;;;;;;;;5046314;28;8886;-75
2022/09/18 12:51:39;;;;;;;;;0.00;0.00;;;;;;;;5043558;28;8856;-77
2022/09/18 12:54:27;;;;;;;;;0.00;0.00;;;;;;;;5045216;28;8888;-76
2022/09/18 12:57:05;;;;;;;;;0.00;0.00;;;;;;;;5044079;28;8848;-76
2022/09/18 12:59:46;;;;;;;;;0.00;0.00;;;;;;;;5044651;28;9622;-76
2022/09/18 13:02:28;;;;;;;;;0.60;0.00;;;;;;;;5045528;28;8878;-74
2022/09/18 13:04:59;;;;;;;;;0.00;0.00;;;;;;;;5025398;28;8859;-76
2022/09/18 13:07:32;;;;;;;;;0.00;0.00;;;;;;;;5027832;28;8883;-76
2022/09/18 13:10:04;;;;;;;;;0.00;0.00;;;;;;;;5045194;28;9661;-74
2022/09/18 13:12:36;;;;;;;;;0.00;0.00;;;;;;;;5045125;28;8868;-77
2022/09/18 13:15:10;;;;;;;;;0.00;0.00;;;;;;;;5044825;28;8966;-73
2022/09/18 13:17:42;;;;;;;;;0.00;0.00;;;;;;;;5042505;28;8883;-75
2022/09/18 13:20:15;;;;;;;;;1.00;0.00;;;;;;;;5039768;28;8862;-73
2022/09/18 13:22:45;;;;;;;;;0.20;0.20;;;;;;;;5025169;28;8872;-75
2022/09/18 13:25:22;;;;;;;;;0.00;0.00;;;;;;;;5026136;28;8902;-74
2022/09/18 13:27:52;;;;;;;;;0.00;0.00;;;;;;;;5045718;28;8848;-74
2022/09/18 13:30:25;;;;;;;;;0.00;0.00;;;;;;;;5043751;28;8961;-74
2022/09/18 13:32:53;;;;;;;;;2.00;0.20;;;;;;;;5045015;28;8835;-74
2022/09/18 13:35:24;;;;;;;;;0.20;0.00;;;;;;;;5025705;28;8949;-74
2022/09/18 13:38:16;;;;;;;;;0.00;0.00;;;;;;;;5044796;28;9654;-75
2022/09/18 13:40:45;;;;;;;;;0.20;0.20;;;;;;;;5044683;28;8832;-74
2022/09/18 13:43:32;;;;;;;;;1.60;1.00;;;;;;;;5043665;28;8915;-74
2022/09/18 13:46:01;;;;;;;;;1.00;1.00;;;;;;;;5037960;28;9638;-74
2022/09/18 13:48:30;;;;;;;;;0.80;0.80;;;;;;;;5044058;28;9688;-75
2022/09/18 13:51:00;;;;;;;;;0.80;0.80;;;;;;;;5045606;28;8874;-75
2022/09/18 13:53:38;;;;;;;;;0.80;0.80;;;;;;;;5041515;28;8848;-76
2022/09/18 13:56:07;;;;;;;;;1.00;1.00;;;;;;;;5044521;28;8848;-74
2022/09/18 13:58:49;;;;;;;;;1.00;1.00;;;;;;;;5036461;28;8867;-73
2022/09/18 14:02:04;;;;;;;;;0.00;0.00;;;;;;;;5042836;28;8808;-73
2022/09/18 14:05:09;;;;;;;;;0.00;0.00;;;;;;;;5044320;28;9771;-76
2022/09/18 14:07:59;;;;;;;;;1.60;0.00;;;;;;;;5041459;28;8898;-77
2022/09/18 14:10:40;;;;;;;;;2.00;0.00;;;;;;;;5042994;28;8904;-76
2022/09/18 14:13:24;;;;;;;;;0.00;0.00;;;;;;;;5040359;28;8867;-76
2022/09/18 14:15:54;;;;;;;;;0.00;0.00;;;;;;;;5043851;28;8858;-76
2022/09/18 14:18:24;;;;;;;;;0.00;0.00;;;;;;;;5043022;28;8886;-76
2022/09/18 14:20:55;;;;;;;;;0.00;0.00;;;;;;;;5035934;28;8849;-76
2022/09/18 14:24:10;;;;;;;;;0.00;0.00;;;;;;;;5037116;28;9676;-75
2022/09/18 14:27:24;;;;;;;;;0.00;0.00;;;;;;;;5012283;28;8860;-77
2022/09/18 14:29:57;;;;;;;;;0.00;0.00;;;;;;;;5005517;28;8852;-77
2022/09/18 14:32:26;;;;;;;;;0.00;0.00;;;;;;;;5041923;28;9726;-76
2022/09/18 14:35:15;;;;;;;;;0.00;0.00;;;;;;;;5042016;28;8859;-76
2022/09/18 14:37:42;;;;;;;;;0.00;0.00;;;;;;;;5039843;28;8836;-77
2022/09/18 14:40:18;;;;;;;;;0.00;0.00;;;;;;;;5036743;28;9676;-76
2022/09/18 14:42:47;;;;;;;;;0.00;0.00;;;;;;;;5042032;28;8906;-74
2022/09/18 14:45:27;;;;;;;;;0.00;0.00;;;;;;;;5041664;28;8867;-74
2022/09/18 14:47:55;;;;;;;;;0.50;0.00;;;;;;;;5041607;28;9253;-75
2022/09/18 14:50:31;;;;;;;;;0.00;0.00;;;;;;;;5042851;28;8852;-75
2022/09/18 14:53:18;;;;;;;;;0.00;0.00;;;;;;;;5031822;28;8868;-75
2022/09/18 14:55:50;;;;;;;;;0.00;0.00;;;;;;;;5034109;28;8888;-74
2022/09/18 14:58:20;;;;;;;;;0.00;0.00;;;;;;;;5038210;28;8871;-74
2022/09/18 15:00:54;;;;;;;;;0.00;0.00;;;;;;;;5038746;28;8808;-74
2022/09/18 15:03:24;;;;;;;;;0.75;0.00;;;;;;;;5039636;28;8847;-74
2022/09/18 15:05:53;;;;;;;;;0.00;0.00;;;;;;;;5024586;28;8864;-74
2022/09/18 15:08:23;;;;;;;;;0.00;0.00;;;;;;;;5039446;28;8930;-75
2022/09/18 15:10:52;;;;;;;;;0.00;0.00;;;;;;;;5035799;28;8867;-74
2022/09/18 15:13:20;;;;;;;;;0.00;0.00;;;;;;;;5021733;28;8876;-73
2022/09/18 15:15:58;;;;;;;;;0.00;0.00;;;;;;;;5036956;28;8872;-74